Time;durP1;ratioP1;P1;durP2;ratioP2;P2;SDS_P1;SDS_P2;PMS_P1;PMS_P2;Temp;Humidity;BMP_temperature;BMP_pressure;BME280_temperature;BME280_humidity;BME280_pressure;Samples;Min_cycle;Max_cycle;Signal;HPM_P1;HPM_P2
2022/10/05 00:00:19;;;;;;;16.43;7.30;;;;;;;12.41;100.00;100774.69;5000371;28;20380;-74
2022/10/05 00:02:46;;;;;;;18.63;6.72;;;;;;;12.43;100.00;100769.16;5001753;28;20112;-74
2022/10/05 00:05:32;;;;;;;12.77;6.10;;;;;;;12.42;100.00;100775.53;4999762;28;20030;-74
2022/10/05 00:08:14;;;;;;;14.48;7.00;;;;;;;12.41;100.00;100780.06;5001594;28;20033;-74
2022/10/05 00:10:41;;;;;;;15.20;6.43;;;;;;;12.40;100.00;100782.91;5001216;28;20044;-73
2022/10/05 00:13:23;;;;;;;13.13;6.90;;;;;;;12.45;100.00;100785.88;4983902;28;20049;-75
2022/10/05 00:15:49;;;;;;;25.20;6.90;;;;;;;12.45;100.00;100783.22;5003312;28;20026;-74
2022/10/05 00:18:15;;;;;;;;;;;;;;;12.43;100.00;100774.50;5002943;28;20074;-74
2022/10/05 00:20:41;;;;;;;14.45;6.43;;;;;;;12.41;100.00;100777.38;5007334;28;19919;-74
2022/10/05 00:23:16;;;;;;;12.73;6.80;;;;;;;12.48;100.00;100774.84;5007380;28;20129;-74
2022/10/05 00:25:42;;;;;;;13.80;7.05;;;;;;;12.46;100.00;100758.13;5000978;28;20048;-74
2022/10/05 00:28:21;;;;;;;18.80;7.30;;;;;;;12.41;100.00;100768.53;5007202;28;20018;-74
2022/10/05 00:30:47;;;;;;;10.45;6.78;;;;;;;12.44;100.00;100771.66;5007224;28;20034;-74
2022/10/05 00:33:12;;;;;;;16.55;6.95;;;;;;;12.51;100.00;100766.47;5007170;28;20048;-74
2022/10/05 00:35:38;;;;;;;14.40;6.50;;;;;;;12.52;100.00;100764.59;5008198;28;20032;-73
2022/10/05 00:38:04;;;;;;;16.83;6.20;;;;;;;12.55;100.00;100764.25;5023476;28;20021;-74
2022/10/05 00:40:47;;;;;;;14.93;6.93;;;;;;;12.54;100.00;100771.44;5006952;28;20037;-74
2022/10/05 00:43:24;;;;;;;13.73;5.90;;;;;;;12.55;100.00;100757.06;5006946;28;20099;-74
2022/10/05 00:46:01;;;;;;;10.38;5.90;;;;;;;12.60;100.00;100760.06;5006792;28;20045;-74
2022/10/05 00:48:37;;;;;;;11.35;6.28;;;;;;;12.59;100.00;100757.53;5006744;28;20430;-74
2022/10/05 00:51:21;;;;;;;11.25;6.60;;;;;;;12.57;100.00;100757.72;5007991;28;20041;-74
2022/10/05 00:54:15;;;;;;;12.07;6.43;;;;;;;12.58;100.00;100771.94;4997846;28;20562;-74
2022/10/05 00:57:01;;;;;;;11.93;6.00;;;;;;;12.61;100.00;100775.09;5000043;28;20029;-74
2022/10/05 01:00:01;;;;;;;14.60;6.40;;;;;;;12.60;100.00;100768.09;5007805;28;20042;-75
2022/10/05 01:02:32;;;;;;;11.70;5.43;;;;;;;12.59;100.00;100774.44;5003759;28;20041;-74
2022/10/05 01:05:05;;;;;;;11.20;5.93;;;;;;;12.64;100.00;100766.72;5006622;28;20038;-74
2022/10/05 01:07:55;;;;;;;11.52;5.93;;;;;;;12.67;100.00;100761.00;5006272;28;20033;-74
2022/10/05 01:10:32;;;;;;;14.15;5.90;;;;;;;12.66;100.00;100750.47;5005164;28;20084;-74
2022/10/05 01:13:26;;;;;;;12.90;6.50;;;;;;;12.71;100.00;100764.16;5023089;28;20491;-74
2022/10/05 01:16:05;;;;;;;10.30;6.32;;;;;;;12.73;100.00;100761.31;5006325;28;20125;-74
2022/10/05 01:18:31;;;;;;;13.02;6.30;;;;;;;12.74;100.00;100746.94;5005098;28;20060;-74
2022/10/05 01:21:06;;;;;;;19.00;7.70;;;;;;;12.72;100.00;100731.03;5003706;28;20046;-75
2022/10/05 01:23:46;;;;;;;15.63;6.53;;;;;;;12.67;100.00;100739.59;5015122;28;20034;-74
2022/10/05 01:26:39;;;;;;;13.60;7.28;;;;;;;12.67;100.00;100744.94;5003713;28;20526;-74
2022/10/05 01:29:15;;;;;;;14.88;6.85;;;;;;;12.60;100.00;100749.34;5007298;28;20045;-74
2022/10/05 01:31:45;;;;;;;10.97;6.20;;;;;;;12.60;100.00;100770.75;5005933;28;20571;-74
2022/10/05 01:34:19;;;;;;;12.50;6.70;;;;;;;12.65;100.00;100771.06;5007060;28;20026;-74
2022/10/05 01:37:02;;;;;;;17.02;7.40;;;;;;;12.68;100.00;100770.72;4996503;28;20125;-74
2022/10/05 01:40:07;;;;;;;11.30;6.28;;;;;;;12.70;100.00;100769.72;5022197;28;20048;-74
2022/10/05 01:42:42;;;;;;;14.15;6.45;;;;;;;12.71;100.00;100774.03;4967474;28;20041;-74
2022/10/05 01:45:30;;;;;;;10.32;6.32;;;;;;;12.74;100.00;100782.59;4968665;28;20495;-74
2022/10/05 01:48:08;;;;;;;13.43;6.88;;;;;;;12.80;100.00;100786.38;4968644;28;20804;-74
2022/10/05 01:50:52;;;;;;;14.73;6.75;;;;;;;12.81;100.00;100770.16;4968517;28;20085;-74
2022/10/05 01:53:31;;;;;;;11.63;6.85;;;;;;;12.79;100.00;100782.06;4984589;28;20047;-74
2022/10/05 01:56:11;;;;;;;10.57;6.57;;;;;;;12.77;100.00;100784.91;4968303;28;20034;-74
2022/10/05 01:59:01;;;;;;;25.40;6.72;;;;;;;12.79;100.00;100804.31;4951567;28;20030;-74
2022/10/05 02:01:37;;;;;;;9.43;6.28;;;;;;;12.80;100.00;100797.09;4977372;28;20057;-74
2022/10/05 02:04:29;;;;;;;12.55;6.68;;;;;;;12.83;100.00;100794.06;4967608;28;20058;-74
2022/10/05 02:06:57;;;;;;;14.30;6.90;;;;;;;12.81;100.00;100788.91;4978930;28;20042;-74
2022/10/05 02:09:29;;;;;;;11.07;6.85;;;;;;;12.85;100.00;100789.38;4957763;28;20226;-74
2022/10/05 02:12:01;;;;;;;12.55;6.75;;;;;;;12.83;100.00;100792.25;4983472;28;20553;-74
2022/10/05 02:14:33;;;;;;;13.95;6.97;;;;;;;12.89;100.00;100796.06;5009450;28;20446;-74
2022/10/05 02:17:04;;;;;;;13.23;6.50;;;;;;;12.94;100.00;100782.13;4995763;28;20389;-74
2022/10/05 02:19:29;;;;;;;14.05;6.35;;;;;;;12.92;100.00;100784.97;4998253;28;20068;-74
2022/10/05 02:22:03;;;;;;;13.77;7.10;;;;;;;12.88;100.00;100781.00;4986785;28;20531;-74
2022/10/05 02:24:37;;;;;;;11.05;7.10;;;;;;;12.91;100.00;100786.00;4998338;28;20029;-74
2022/10/05 02:27:05;;;;;;;12.25;7.03;;;;;;;12.89;100.00;100788.00;4981991;28;20072;-74
2022/10/05 02:29:34;;;;;;;14.75;7.72;;;;;;;12.83;100.00;100799.44;5012698;28;20060;-74
2022/10/05 02:32:05;;;;;;;11.93;5.90;;;;;;;12.83;100.00;100791.38;4995658;28;20048;-74
2022/10/05 02:34:38;;;;;;;14.77;5.95;;;;;;;12.81;100.00;100809.50;5002821;28;20072;-74
2022/10/05 02:37:43;;;;;;;11.32;6.00;;;;;;;12.83;100.00;100802.97;4996105;28;20458;-74
2022/10/05 02:40:35;;;;;;;13.68;6.18;;;;;;;12.84;100.00;100795.75;5001007;28;20053;-74
2022/10/05 02:43:37;;;;;;;13.43;6.70;;;;;;;12.80;100.00;100792.56;5001061;28;20602;-74
2022/10/05 02:46:10;;;;;;;10.80;6.13;;;;;;;12.75;100.00;100807.53;4986795;28;20030;-74
2022/10/05 02:48:53;;;;;;;12.80;6.38;;;;;;;12.70;100.00;100813.41;4995639;28;20030;-74
2022/10/05 02:51:33;;;;;;;9.40;6.28;;;;;;;12.65;100.00;100827.31;4997654;28;20427;-74
2022/10/05 02:54:20;;;;;;;13.88;6.88;;;;;;;12.56;100.00;100832.88;4996812;28;20042;-74
2022/10/05 02:56:58;;;;;;;13.13;6.75;;;;;;;12.52;100.00;100843.09;5000598;28;20087;-74
2022/10/05 02:59:43;;;;;;;13.60;7.47;;;;;;;12.48;100.00;100857.00;4997807;28;20038;-74
2022/10/05 03:02:31;;;;;;;11.15;6.55;;;;;;;12.38;100.00;100858.03;5001201;28;20034;-73
2022/10/05 03:05:17;;;;;;;18.65;7.43;;;;;;;12.41;100.00;100867.59;5037822;23;20117;-84
2022/10/05 03:08:05;;;;;;;11.02;6.40;;;;;;;12.35;100.00;100862.91;5035303;28;20021;-85
2022/10/05 03:11:01;;;;;;;12.07;7.53;;;;;;;12.29;100.00;100869.78;5051009;28;20129;-81
2022/10/05 03:13:52;;;;;;;15.27;7.05;;;;;;;12.23;100.00;100879.31;5037807;28;20450;-85
2022/10/05 03:16:40;;;;;;;13.25;7.50;;;;;;;12.23;100.00;100875.81;5051850;28;20033;-83
2022/10/05 03:19:25;;;;;;;12.10;6.95;;;;;;;12.23;100.00;100875.81;5070347;28;20033;-84
2022/10/05 03:22:02;;;;;;;21.02;8.98;;;;;;;12.22;100.00;100875.00;5070756;28;20143;-82
2022/10/05 03:25:13;;;;;;;17.88;7.95;;;;;;;12.23;100.00;100876.66;5038053;28;20102;-83
2022/10/05 03:28:07;;;;;;;11.82;6.78;;;;;;;12.32;100.00;100863.25;5033645;28;20028;-85
2022/10/05 03:31:03;;;;;;;12.82;7.90;;;;;;;12.35;100.00;100839.63;5049320;28;20393;-85
2022/10/05 03:33:45;;;;;;;11.52;7.10;;;;;;;12.34;100.00;100834.44;5018618;28;20052;-81
2022/10/05 03:36:14;;;;;;;9.63;6.28;;;;;;;12.36;100.00;100833.28;5036990;28;20033;-80
2022/10/05 03:38:46;;;;;;;11.98;7.32;;;;;;;12.40;100.00;100828.41;5072677;28;20040;-84
2022/10/05 03:41:41;;;;;;;11.88;7.00;;;;;;;12.42;100.00;100813.00;5071979;28;20033;-85
2022/10/05 03:44:14;;;;;;;15.03;7.33;;;;;;;12.41;100.00;100797.97;5055341;28;20123;-84
2022/10/05 03:46:49;;;;;;;12.77;6.85;;;;;;;12.50;100.00;100799.59;5071653;28;20032;-85
2022/10/05 03:49:30;;;;;;;13.82;7.03;;;;;;;12.52;100.00;100780.66;5036631;28;20060;-85
2022/10/05 03:52:06;;;;;;;16.50;7.40;;;;;;;12.51;100.00;100779.84;5053208;28;20740;-85
2022/10/05 03:54:34;;;;;;;;;;;;;;;12.50;100.00;100770.13;5066512;28;20056;-82
2022/10/05 03:57:22;;;;;;;12.15;6.60;;;;;;;12.54;100.00;100775.97;5037111;28;20120;-83
2022/10/05 04:00:01;;;;;;;14.75;6.05;;;;;;;12.51;100.00;100761.09;5034403;28;20059;-85
2022/10/05 04:02:33;;;;;;;12.15;7.38;;;;;;;12.50;100.00;100764.78;5069906;28;20441;-85
2022/10/05 04:04:59;;;;;;;13.20;8.70;;;;;;;12.53;100.00;100774.31;5052252;28;20426;-84
2022/10/05 04:07:34;;;;;;;15.53;8.00;;;;;;;12.51;100.00;100763.78;5035410;28;20093;-83
2022/10/05 04:10:04;;;;;;;15.85;7.60;;;;;;;12.51;100.00;100754.91;5069346;28;20782;-82
2022/10/05 04:12:38;;;;;;;16.35;8.02;;;;;;;12.51;100.00;100758.41;5052262;28;20032;-84
2022/10/05 04:15:28;;;;;;;17.50;8.52;;;;;;;12.48;100.00;100761.47;5069081;28;20033;-82
2022/10/05 04:18:00;;;;;;;12.88;7.20;;;;;;;12.50;100.00;100755.91;5068272;28;20119;-84
2022/10/05 04:20:50;;;;;;;15.02;7.97;;;;;;;12.49;100.00;100751.56;5045260;28;20140;-81
2022/10/05 04:23:16;;;;;;;16.27;7.53;;;;;;;12.51;100.00;100770.97;5062090;28;20037;-84
2022/10/05 04:25:50;;;;;;;15.90;8.03;;;;;;;12.46;100.00;100750.09;5034849;28;20562;-85
2022/10/05 04:28:24;;;;;;;18.63;7.22;;;;;;;12.47;100.00;100762.44;5034445;28;20071;-83
2022/10/05 04:30:52;;;;;;;17.52;8.48;;;;;;;12.49;100.00;100768.47;5067954;28;20025;-82
2022/10/05 04:33:19;;;;;;;12.73;7.95;;;;;;;12.50;100.00;100750.56;5067454;28;20029;-85
2022/10/05 04:36:14;;;;;;;16.30;8.07;;;;;;;12.48;100.00;100740.03;5048809;28;20611;-82
2022/10/05 04:38:47;;;;;;;12.38;7.22;;;;;;;12.49;100.00;100752.41;5025031;28;20447;-85
2022/10/05 04:41:38;;;;;;;12.50;7.63;;;;;;;12.46;100.00;100742.06;5046338;28;20039;-84
2022/10/05 04:44:34;;;;;;;13.43;7.57;;;;;;;12.45;100.00;100743.03;5047839;28;20048;-85
2022/10/05 04:47:21;;;;;;;15.48;7.80;;;;;;;12.44;100.00;100749.41;5047219;28;20393;-85
2022/10/05 04:50:24;;;;;;;13.88;7.80;;;;;;;12.42;100.00;100754.13;5032073;28;20021;-83
2022/10/05 04:53:12;;;;;;;17.98;8.13;;;;;;;12.36;100.00;100746.75;5035541;28;20040;-82
2022/10/05 04:55:53;;;;;;;;;;;;;;;12.39;100.00;100763.34;5024896;28;20174;-83
2022/10/05 04:58:37;;;;;;;14.52;7.28;;;;;;;12.41;100.00;100763.16;5033626;28;20172;-85
2022/10/05 05:01:26;;;;;;;17.85;8.18;;;;;;;12.40;100.00;100764.16;5051287;28;20048;-85
2022/10/05 05:04:19;;;;;;;15.82;7.90;;;;;;;12.41;100.00;100761.31;5048986;28;20041;-84
2022/10/05 05:07:02;;;;;;;14.10;7.07;;;;;;;12.41;100.00;100739.91;5051225;28;20045;-81
2022/10/05 05:09:57;;;;;;;16.42;9.23;;;;;;;12.36;100.00;100730.69;5039382;28;20021;-84
2022/10/05 05:12:33;;;;;;;17.50;8.07;;;;;;;12.36;100.00;100722.66;5007551;28;20039;-83
2022/10/05 05:15:11;;;;;;;15.05;7.85;;;;;;;12.30;100.00;100734.91;4989634;28;20034;-84
2022/10/05 05:17:37;;;;;;;14.65;8.55;;;;;;;12.31;100.00;100739.25;4988692;28;20065;-85
2022/10/05 05:20:45;;;;;;;30.02;9.45;;;;;;;12.32;100.00;100740.13;4975039;28;20154;-81
2022/10/05 05:23:39;;;;;;;14.02;7.63;;;;;;;12.34;100.00;100733.56;4985661;28;20038;-82
2022/10/05 05:26:26;;;;;;;14.83;7.57;;;;;;;12.30;100.00;100736.78;4972138;28;20030;-85
2022/10/05 05:29:21;;;;;;;15.93;8.48;;;;;;;12.28;100.00;100731.59;4967878;28;20499;-83
2022/10/05 05:31:52;;;;;;;12.73;7.45;;;;;;;12.26;100.00;100725.56;4988927;28;20030;-85
2022/10/05 05:34:26;;;;;;;16.17;8.13;;;;;;;12.26;100.00;100728.25;4975517;28;20038;-85
2022/10/05 05:37:15;;;;;;;16.30;8.43;;;;;;;12.23;100.00;100736.63;4989254;28;20054;-85
2022/10/05 05:40:06;;;;;;;13.70;7.78;;;;;;;12.27;100.00;100729.94;4970090;28;20098;-84
2022/10/05 05:43:01;;;;;;;13.27;7.80;;;;;;;12.23;100.00;100733.94;4970977;28;20049;-85
2022/10/05 05:45:47;;;;;;;11.68;8.48;;;;;;;12.20;100.00;100743.16;4975314;28;20037;-84
2022/10/05 05:48:21;;;;;;;16.40;8.55;;;;;;;12.24;100.00;100741.81;5009187;28;20132;-85
2022/10/05 05:51:07;;;;;;;13.77;8.38;;;;;;;12.18;100.00;100731.78;5052221;28;20434;-85
2022/10/05 05:53:53;;;;;;;14.88;7.13;;;;;;;12.14;100.00;100741.16;5044296;28;20039;-86
2022/10/05 05:56:43;;;;;;;16.83;7.55;;;;;;;12.16;100.00;100736.47;5040352;28;20083;-84
2022/10/05 05:59:15;;;;;;;16.92;8.27;;;;;;;12.21;100.00;100728.75;5068259;28;20382;-83
2022/10/05 06:02:02;;;;;;;14.70;7.93;;;;;;;12.20;100.00;100721.75;5069527;28;20529;-82
2022/10/05 06:04:37;;;;;;;14.88;8.25;;;;;;;12.17;100.00;100730.09;5051621;28;20028;-86
2022/10/05 06:07:04;;;;;;;14.18;7.60;;;;;;;12.15;100.00;100723.25;5051764;28;20033;-86
2022/10/05 06:09:40;;;;;;;13.35;8.32;;;;;;;12.15;100.00;100742.84;5050275;28;20056;-83
2022/10/05 06:12:31;;;;;;;14.65;7.60;;;;;;;12.21;100.00;100739.47;5040995;28;20412;-86
2022/10/05 06:15:02;;;;;;;11.90;7.82;;;;;;;12.32;100.00;100726.72;5051335;22;20131;-73
2022/10/05 06:17:36;;;;;;;16.25;8.45;;;;;;;12.25;100.00;100716.72;5024089;28;20124;-73
2022/10/05 06:20:10;;;;;;;18.02;8.40;;;;;;;12.30;100.00;100723.38;5024462;28;20045;-73
2022/10/05 06:22:39;;;;;;;13.48;7.50;;;;;;;12.32;100.00;100732.09;5008381;28;20891;-73
2022/10/05 06:25:12;;;;;;;14.98;8.85;;;;;;;12.35;100.00;100735.22;5024360;28;20038;-74
2022/10/05 06:27:58;;;;;;;17.25;9.27;;;;;;;12.41;100.00;100726.50;5024331;28;20112;-73
2022/10/05 06:30:30;;;;;;;15.60;8.25;;;;;;;12.41;100.00;100723.00;5023693;28;20079;-73
2022/10/05 06:33:02;;;;;;;15.43;7.20;;;;;;;12.40;100.00;100716.78;5024359;28;20064;-74
2022/10/05 06:35:53;;;;;;;14.30;7.88;;;;;;;12.42;100.00;100725.50;5023880;28;20029;-73
2022/10/05 06:38:43;;;;;;;14.68;8.15;;;;;;;12.40;100.00;100722.16;5023952;28;20045;-73
2022/10/05 06:41:23;;;;;;;22.45;8.70;;;;;;;12.47;100.00;100735.69;5022691;28;20048;-73
2022/10/05 06:43:59;;;;;;;16.42;8.65;;;;;;;12.49;100.00;100724.78;5007969;28;20029;-74
2022/10/05 06:47:37;;;;;;;14.40;8.32;;;;;;;12.50;100.00;100727.28;4963927;28;20077;-73
2022/10/05 06:50:41;;;;;;;15.43;7.63;;;;;;;12.52;100.00;100730.63;4949572;28;20031;-73
2022/10/05 06:53:39;;;;;;;14.05;7.28;;;;;;;12.56;100.00;100717.72;4934215;28;20069;-73
2022/10/05 06:56:40;;;;;;;16.60;8.30;;;;;;;12.64;100.00;100725.69;4947663;28;20082;-73
2022/10/05 06:59:20;;;;;;;18.75;7.88;;;;;;;12.70;100.00;100721.50;4896222;29;20193;-74
2022/10/05 07:01:54;;;;;;;10.68;7.90;;;;;;;12.86;100.00;100730.25;4890440;29;20065;-74
2022/10/05 07:04:55;;;;;;;10.82;7.03;;;;;;;12.87;100.00;100718.50;4875065;29;20135;-73
2022/10/05 07:07:48;;;;;;;14.30;7.45;;;;;;;12.92;100.00;100714.47;4874108;29;20051;-74
2022/10/05 07:10:35;;;;;;;14.98;8.98;;;;;;;12.93;100.00;100706.28;4873128;29;20648;-73
2022/10/05 07:13:27;;;;;;;14.40;7.72;;;;;;;13.01;100.00;100705.38;4890902;29;20044;-73
2022/10/05 07:16:14;;;;;;;13.23;7.72;;;;;;;13.09;100.00;100702.63;4870397;29;20044;-73
2022/10/05 07:19:06;;;;;;;12.68;7.68;;;;;;;13.29;100.00;100724.44;4953164;28;20042;-73
2022/10/05 07:21:44;;;;;;;15.70;7.70;;;;;;;13.44;100.00;100719.94;4980999;28;20050;-73
2022/10/05 07:24:28;;;;;;;13.30;7.57;;;;;;;13.42;100.00;100687.13;4963554;28;20042;-73
2022/10/05 07:26:59;;;;;;;12.50;7.03;;;;;;;13.55;100.00;100682.97;4964126;28;20121;-73
2022/10/05 07:29:27;;;;;;;16.52;7.75;;;;;;;13.52;100.00;100655.50;4982240;28;20129;-73
2022/10/05 07:32:21;;;;;;;11.30;7.20;;;;;;;13.52;100.00;100650.13;4966094;28;20120;-73
2022/10/05 07:34:58;;;;;;;13.48;7.75;;;;;;;13.55;100.00;100642.72;5000927;28;20041;-73
2022/10/05 07:37:56;;;;;;;13.10;7.82;;;;;;;13.52;100.00;100647.44;5021522;28;20529;-73
2022/10/05 07:40:36;;;;;;;14.65;7.90;;;;;;;13.40;100.00;100664.19;5023794;28;20509;-73
2022/10/05 07:43:06;;;;;;;17.55;8.27;;;;;;;13.49;100.00;100685.38;5023656;28;20125;-73
2022/10/05 07:45:44;;;;;;;16.27;7.88;;;;;;;13.54;100.00;100678.63;5022093;28;20434;-73
2022/10/05 07:48:21;;;;;;;12.40;7.57;;;;;;;13.50;100.00;100662.06;5003832;28;20433;-73
2022/10/05 07:51:17;;;;;;;15.27;7.80;;;;;;;13.57;100.00;100665.66;5036438;28;20516;-73
2022/10/05 07:53:58;;;;;;;14.27;7.43;;;;;;;13.70;100.00;100662.34;5016153;28;20429;-73
2022/10/05 07:56:37;;;;;;;13.50;8.07;;;;;;;13.70;100.00;100662.34;5006197;28;20041;-73
2022/10/05 07:59:06;;;;;;;13.98;7.78;;;;;;;13.75;100.00;100664.50;5022784;28;20437;-73
2022/10/05 08:01:40;;;;;;;13.50;7.68;;;;;;;13.77;100.00;100649.03;5032601;28;20032;-73
2022/10/05 08:04:25;;;;;;;16.65;7.43;;;;;;;13.84;100.00;100649.97;5018797;28;20036;-73
2022/10/05 08:06:56;;;;;;;13.75;7.32;;;;;;;14.09;100.00;100659.38;5036818;28;20510;-73
2022/10/05 08:09:31;;;;;;;11.82;7.40;;;;;;;14.17;100.00;100642.31;5023762;28;20449;-73
2022/10/05 08:12:27;;;;;;;14.57;7.57;;;;;;;14.26;100.00;100621.56;5022522;28;20060;-73
2022/10/05 08:14:52;;;;;;;12.32;7.32;;;;;;;14.26;100.00;100592.03;5025436;28;20387;-73
2022/10/05 08:17:39;;;;;;;12.67;8.20;;;;;;;14.35;100.00;100575.59;5026036;28;20049;-74
2022/10/05 08:20:17;;;;;;;14.77;7.45;;;;;;;14.41;100.00;100592.78;5025800;28;20033;-73
2022/10/05 08:22:52;;;;;;;13.40;7.55;;;;;;;14.41;100.00;100579.34;5024047;28;20069;-74
2022/10/05 08:25:28;;;;;;;13.80;6.87;;;;;;;14.48;100.00;100582.94;5025855;28;20033;-73
2022/10/05 08:28:03;;;;;;;14.23;7.70;;;;;;;14.25;100.00;100572.38;5026126;28;20668;-73
2022/10/05 08:30:34;;;;;;;13.95;7.88;;;;;;;14.21;100.00;100603.34;5027429;28;20030;-73
2022/10/05 08:33:15;;;;;;;17.08;8.05;;;;;;;14.26;100.00;100638.50;5026331;28;20053;-73
2022/10/05 08:35:44;;;;;;;18.05;8.15;;;;;;;14.28;100.00;100636.47;5023615;28;20877;-74
2022/10/05 08:38:15;;;;;;;18.35;8.90;;;;;;;14.27;100.00;100628.59;5023382;28;20037;-73
2022/10/05 08:41:01;;;;;;;13.73;7.88;;;;;;;14.24;100.00;100626.28;5027105;28;20038;-73
2022/10/05 08:44:06;;;;;;;14.43;8.48;;;;;;;14.37;100.00;100629.09;5027132;28;20355;-74
2022/10/05 08:47:14;;;;;;;13.50;7.53;;;;;;;14.35;100.00;100615.03;4940120;28;20043;-73
2022/10/05 08:50:01;;;;;;;18.85;8.55;;;;;;;14.72;100.00;100631.97;5025905;28;20036;-73
2022/10/05 08:52:42;;;;;;;14.98;7.53;;;;;;;14.83;100.00;100583.06;5027290;28;20079;-73
2022/10/05 08:55:49;;;;;;;14.73;7.05;;;;;;;14.84;100.00;100576.66;5038901;28;20033;-74
2022/10/05 08:58:30;;;;;;;14.57;7.70;;;;;;;14.87;100.00;100586.22;5007053;28;20052;-73
2022/10/05 09:01:31;;;;;;;14.60;8.68;;;;;;;14.83;100.00;100553.50;5022081;28;20065;-73
2022/10/05 09:04:17;;;;;;;11.43;7.22;;;;;;;14.75;100.00;100556.34;5000389;28;20056;-73
2022/10/05 09:06:57;;;;;;;12.27;7.45;;;;;;;14.62;100.00;100564.28;5052710;23;20045;-77
2022/10/05 09:09:44;;;;;;;14.45;8.00;;;;;;;14.56;100.00;100582.00;5039036;28;20084;-79
2022/10/05 09:12:19;;;;;;;10.52;7.05;;;;;;;14.51;100.00;100597.84;5026794;28;20480;-78
2022/10/05 09:15:00;;;;;;;15.40;8.20;;;;;;;14.63;100.00;100612.44;5027276;28;20036;-78
2022/10/05 09:18:03;;;;;;;12.07;7.78;;;;;;;14.61;100.00;100576.91;5035642;28;20542;-77
2022/10/05 09:20:33;;;;;;;12.60;7.70;;;;;;;14.78;100.00;100590.91;4969754;28;20073;-78
2022/10/05 09:23:13;;;;;;;14.95;7.88;;;;;;;15.01;100.00;100582.59;4955642;28;20050;-77
2022/10/05 09:25:53;;;;;;;12.43;7.72;;;;;;;15.03;100.00;100542.91;4973171;28;20045;-79
2022/10/05 09:28:21;;;;;;;14.88;7.30;;;;;;;15.28;100.00;100539.75;4988098;28;20038;-79
2022/10/05 09:31:11;;;;;;;10.88;7.22;;;;;;;15.27;100.00;100511.19;4957897;28;20121;-77
2022/10/05 09:34:02;;;;;;;12.45;6.55;;;;;;;15.29;100.00;100498.34;4988416;28;20503;-78
2022/10/05 09:37:06;;;;;;;13.82;7.50;;;;;;;15.40;100.00;100514.78;4972692;28;20053;-78
2022/10/05 09:39:52;;;;;;;14.88;7.43;;;;;;;15.30;100.00;100478.53;4989384;28;20144;-78
2022/10/05 09:42:30;;;;;;;12.05;7.57;;;;;;;15.46;100.00;100510.47;4980609;28;20056;-78
2022/10/05 09:45:10;;;;;;;15.57;7.05;;;;;;;15.17;100.00;100452.38;4971718;28;20072;-77
2022/10/05 09:47:59;;;;;;;10.40;7.15;;;;;;;15.16;100.00;100501.81;4971236;28;20123;-79
2022/10/05 09:50:36;;;;;;;10.25;6.93;;;;;;;15.30;100.00;100521.56;4988211;28;20060;-79
2022/10/05 09:53:04;;;;;;;10.68;7.43;;;;;;;15.19;100.00;100520.25;5029184;28;20436;-78
2022/10/05 09:56:07;;;;;;;12.25;6.90;;;;;;;15.24;100.00;100541.16;5011945;28;20029;-78
2022/10/05 09:59:20;;;;;;;12.73;8.20;;;;;;;15.18;100.00;100551.69;5028175;28;20406;-79
2022/10/05 10:02:04;;;;;;;15.00;8.55;;;;;;;15.13;100.00;100570.28;5025192;28;20397;-77
2022/10/05 10:05:07;;;;;;;18.13;7.75;;;;;;;15.22;100.00;100562.03;5020613;28;20120;-79
2022/10/05 10:08:08;;;;;;;10.45;7.70;;;;;;;15.09;100.00;100552.88;5010196;28;20029;-79
2022/10/05 10:10:48;;;;;;;11.20;7.53;;;;;;;15.00;100.00;100586.31;5027461;28;20125;-79
2022/10/05 10:13:33;;;;;;;13.07;8.45;;;;;;;15.17;100.00;100592.19;5028420;28;20498;-79
2022/10/05 10:16:22;;;;;;;12.85;6.65;;;;;;;14.96;100.00;100569.75;5028427;28;20041;-77
2022/10/05 10:18:53;;;;;;;11.38;7.40;;;;;;;15.12;100.00;100576.66;5025125;28;20399;-78
2022/10/05 10:21:41;;;;;;;14.15;7.25;;;;;;;15.22;100.00;100584.41;5030062;28;20037;-78
2022/10/05 10:24:14;;;;;;;10.52;6.90;;;;;;;15.26;100.00;100564.13;5013263;28;20037;-78
2022/10/05 10:27:17;;;;;;;11.65;7.55;;;;;;;15.27;100.00;100591.88;5028786;28;20049;-78
2022/10/05 10:30:28;;;;;;;10.98;7.20;;;;;;;15.24;100.00;100582.34;5026672;28;20029;-78
2022/10/05 10:33:39;;;;;;;12.10;6.00;;;;;;;15.23;100.00;100596.00;5012128;28;20529;-77
2022/10/05 10:36:16;;;;;;;12.05;6.97;;;;;;;15.09;100.00;100571.69;4917782;29;20674;-77
2022/10/05 10:39:00;;;;;;;13.45;7.05;;;;;;;15.09;100.00;100589.69;4931922;29;20070;-79
2022/10/05 10:41:44;;;;;;;11.63;7.22;;;;;;;14.92;100.00;100579.22;4930773;29;20451;-77
2022/10/05 10:44:31;;;;;;;15.20;6.65;;;;;;;14.96;100.00;100614.59;4931573;29;20039;-78
2022/10/05 10:47:24;;;;;;;12.57;7.03;;;;;;;14.92;100.00;100607.97;4945159;29;20109;-77
2022/10/05 10:50:07;;;;;;;10.68;6.63;;;;;;;14.88;100.00;100599.44;4943712;29;20042;-77
2022/10/05 10:52:56;;;;;;;12.02;6.30;;;;;;;14.87;100.00;100630.06;4915696;29;20035;-78
2022/10/05 10:55:36;;;;;;;11.43;6.00;;;;;;;14.97;100.00;100651.22;4945960;28;20484;-77
2022/10/05 10:58:18;;;;;;;11.32;5.60;;;;;;;15.01;100.00;100624.75;4946610;29;20051;-78
2022/10/05 11:01:23;;;;;;;14.65;7.03;;;;;;;14.93;100.00;100621.19;4929823;29;20142;-77
2022/10/05 11:04:15;;;;;;;9.32;5.20;;;;;;;14.85;100.00;100625.88;4947073;29;20046;-77
2022/10/05 11:07:22;;;;;;;8.57;5.55;;;;;;;14.76;100.00;100558.00;4916143;29;20047;-77
2022/10/05 11:09:59;;;;;;;9.90;6.40;;;;;;;14.73;100.00;100515.41;4946970;29;20166;-78
2022/10/05 11:13:02;;;;;;;10.20;7.18;;;;;;;14.77;100.00;100461.06;4956596;28;20358;-75
2022/10/05 11:15:38;;;;;;;8.40;5.75;;;;;;;14.78;100.00;100443.09;5024161;28;20497;-75
2022/10/05 11:18:34;;;;;;;;;;;;;;;14.86;100.00;100450.16;5023856;28;20136;-75
2022/10/05 11:21:39;;;;;;;9.13;5.47;;;;;;;14.93;100.00;100445.66;5048204;28;19923;-75
2022/10/05 11:24:29;;;;;;;7.55;5.15;;;;;;;14.88;100.00;100461.53;5013411;28;20102;-75
2022/10/05 11:27:09;;;;;;;9.05;5.60;;;;;;;14.86;100.00;100434.84;5029657;28;20068;-75
2022/10/05 11:30:00;;;;;;;8.95;5.60;;;;;;;14.86;100.00;100472.47;5029459;28;20500;-75
2022/10/05 11:32:55;;;;;;;8.75;5.32;;;;;;;14.90;100.00;100472.94;5030658;28;20021;-75
2022/10/05 11:35:39;;;;;;;9.75;4.95;;;;;;;14.89;100.00;100460.50;5030721;28;20041;-75
2022/10/05 11:38:08;;;;;;;12.95;5.75;;;;;;;14.94;100.00;100423.13;5033228;28;20480;-75
2022/10/05 11:41:02;;;;;;;9.18;4.95;;;;;;;14.80;100.00;100364.94;5015402;28;20024;-75
2022/10/05 11:43:49;;;;;;;6.00;4.15;;;;;;;14.84;100.00;100404.66;5032748;28;20026;-75
2022/10/05 11:46:32;;;;;;;10.30;6.40;;;;;;;14.78;100.00;100443.09;5031376;28;20095;-75
2022/10/05 11:49:01;;;;;;;12.10;6.63;;;;;;;14.78;100.00;100443.09;5035661;28;20033;-75
2022/10/05 11:51:52;;;;;;;10.18;7.40;;;;;;;14.66;100.00;100412.44;5017299;28;20102;-74
2022/10/05 11:54:42;;;;;;;9.13;7.25;;;;;;;14.66;100.00;100428.56;5035490;28;20108;-75
2022/10/05 11:57:16;;;;;;;9.27;7.47;;;;;;;14.66;100.00;100472.38;5035221;28;20057;-75
2022/10/05 11:59:58;;;;;;;12.85;8.27;;;;;;;14.64;100.00;100460.16;5036478;28;20098;-75
2022/10/05 12:02:45;;;;;;;11.05;8.43;;;;;;;14.74;100.00;100474.88;5036551;28;20039;-75
2022/10/05 12:05:17;;;;;;;11.80;8.90;;;;;;;14.78;100.00;100476.16;5035967;28;20644;-75
2022/10/05 12:08:02;;;;;;;13.68;9.15;;;;;;;14.59;100.00;100487.59;5035286;28;20071;-75
2022/10/05 12:11:06;;;;;;;13.18;8.27;;;;;;;14.71;100.00;100565.81;5036988;28;20035;-75
2022/10/05 12:13:50;;;;;;;11.48;8.25;;;;;;;14.83;100.00;100558.06;5035959;28;20160;-75
2022/10/05 12:16:33;;;;;;;10.68;8.48;;;;;;;14.67;100.00;100518.88;5036468;28;20128;-74
2022/10/05 12:19:13;;;;;;;9.38;8.43;;;;;;;14.74;100.00;100568.13;5035130;28;20068;-75
2022/10/05 12:21:48;;;;;;;11.90;8.60;;;;;;;14.70;100.00;100591.00;5035910;28;20035;-75